Portada
METAR-TAF:

METAR-TAF

Aeroports :

Leuchars, Escòcia

latitud: 56-23N, longitud: 002-52W, altitud: 12 m

Observació

L'informe es va fer fa 1 hora i 21 minuts, a les 03:50 UTC
Vent 11 kt del Est/Sud-Est
Temperatura 7°C
Humitat 76%
Pressió 1009 hPa
Visibilitat 10 km o més
Cel cobert a una alçada de 3600 ft

METAR: EGQL 210350Z 12011KT 9999 OVC036 07/03 Q1009 BLU

Hora: 05:11 (05:11 UTC)

Pronòstic

L'informe es va fer fa 3 hores i 56 minuts, a les 01:15 UTC
Pronòstic vàlid del 21 a les 03 UTC al 21 a les 12 UTC
Vent 10 kt del Sud-Est
Visibilitat 10 km o més
Núvols disperses a una alçada de 2800 ft
Probabilitat 30% :
Temporalment
l' 21 a les 05 UTC al 21 a les 12 UTC
Núvols disperses a una alçada de 2000 ft
xàfecs de pluja

TAF: EGQL 210115Z 2103/2112 14010KT 9999 SCT028 PROB30 TEMPO 2105/2112 -SHRA SCT020

Observacions i pronòstics meteorològics de més de 4000 aeroports (METAR i TAF).

Les estacions disponibles són els punts grocs i vermells al mapa.

Posi el ratolí al punt desitjat per veure el nom de l'estació.

Feu clic per veure les observacions i els pronòstics meteorològics.

Per canviar el mapa: feu clic els botons verds amb una creu de color negre per apropar; al botó verd amb un guió per allunyar la imatge; o en les fletxes verdes per a mapes adjacents.


METAR-TAF: